sensor_id;sensor_type;location;lat;lon;timestamp;pressure;altitude;pressure_sealevel;temperature;humidity
59831;BME280;45711;50.108;13.712;2023-11-21T00:00:55;97274.63;;;8.51;100.00
59831;BME280;45711;50.108;13.712;2023-11-21T00:03:24;97276.69;;;8.60;100.00
59831;BME280;45711;50.108;13.712;2023-11-21T00:05:55;97282.31;;;8.58;100.00
59831;BME280;45711;50.108;13.712;2023-11-21T00:08:21;97282.06;;;8.54;100.00
59831;BME280;45711;50.108;13.712;2023-11-21T00:10:48;97281.28;;;8.54;100.00
59831;BME280;45711;50.108;13.712;2023-11-21T00:13:14;97278.13;;;8.47;100.00
59831;BME280;45711;50.108;13.712;2023-11-21T00:15:39;97273.34;;;8.44;100.00
59831;BME280;45711;50.108;13.712;2023-11-21T00:18:06;97268.53;;;8.46;100.00
59831;BME280;45711;50.108;13.712;2023-11-21T00:20:31;97272.00;;;8.46;100.00
59831;BME280;45711;50.108;13.712;2023-11-21T00:22:57;97265.03;;;8.50;100.00
59831;BME280;45711;50.108;13.712;2023-11-21T00:25:23;97271.50;;;8.39;100.00
59831;BME280;45711;50.108;13.712;2023-11-21T00:27:50;97271.75;;;8.43;100.00
59831;BME280;45711;50.108;13.712;2023-11-21T00:30:15;97268.00;;;8.49;100.00
59831;BME280;45711;50.108;13.712;2023-11-21T00:32:41;97274.66;;;8.46;100.00
59831;BME280;45711;50.108;13.712;2023-11-21T00:35:07;97278.88;;;8.52;100.00
59831;BME280;45711;50.108;13.712;2023-11-21T00:37:33;97272.31;;;8.40;99.85
59831;BME280;45711;50.108;13.712;2023-11-21T00:39:58;97272.28;;;8.45;100.00
59831;BME280;45711;50.108;13.712;2023-11-21T00:42:24;97271.22;;;8.46;100.00
59831;BME280;45711;50.108;13.712;2023-11-21T00:44:51;97278.13;;;8.47;100.00
59831;BME280;45711;50.108;13.712;2023-11-21T00:47:16;97279.53;;;8.34;100.00
59831;BME280;45711;50.108;13.712;2023-11-21T00:49:42;97276.13;;;8.28;98.39
59831;BME280;45711;50.108;13.712;2023-11-21T00:52:08;97281.91;;;8.41;100.00
59831;BME280;45711;50.108;13.712;2023-11-21T00:54:34;97287.47;;;8.44;99.54
59831;BME280;45711;50.108;13.712;2023-11-21T00:57:00;97279.00;;;8.37;98.47
59831;BME280;45711;50.108;13.712;2023-11-21T00:59:26;97281.38;;;8.39;99.36
59831;BME280;45711;50.108;13.712;2023-11-21T01:01:53;97284.34;;;8.32;99.42
59831;BME280;45711;50.108;13.712;2023-11-21T01:04:19;97289.91;;;8.36;100.00
59831;BME280;45711;50.108;13.712;2023-11-21T01:06:45;97284.56;;;8.36;99.91
59831;BME280;45711;50.108;13.712;2023-11-21T01:09:10;97286.97;;;8.42;100.00
59831;BME280;45711;50.108;13.712;2023-11-21T01:11:36;97290.19;;;8.39;99.75
59831;BME280;45711;50.108;13.712;2023-11-21T01:14:03;97284.63;;;8.30;99.52
59831;BME280;45711;50.108;13.712;2023-11-21T01:16:29;97287.75;;;8.43;100.00
59831;BME280;45711;50.108;13.712;2023-11-21T01:18:59;97291.41;;;8.52;100.00
59831;BME280;45711;50.108;13.712;2023-11-21T01:21:25;97293.88;;;8.43;100.00
59831;BME280;45711;50.108;13.712;2023-11-21T01:23:50;97292.06;;;8.39;100.00
59831;BME280;45711;50.108;13.712;2023-11-21T01:26:16;97289.91;;;8.41;100.00
59831;BME280;45711;50.108;13.712;2023-11-21T01:28:41;97288.31;;;8.35;100.00
59831;BME280;45711;50.108;13.712;2023-11-21T01:31:07;97286.50;;;8.30;100.00
59831;BME280;45711;50.108;13.712;2023-11-21T01:33:33;97283.78;;;8.40;100.00
59831;BME280;45711;50.108;13.712;2023-11-21T01:36:00;97291.25;;;8.38;100.00
59831;BME280;45711;50.108;13.712;2023-11-21T01:38:25;97289.13;;;8.40;100.00
59831;BME280;45711;50.108;13.712;2023-11-21T01:40:51;97292.06;;;8.39;100.00
59831;BME280;45711;50.108;13.712;2023-11-21T01:43:17;97289.91;;;8.41;100.00
59831;BME280;45711;50.108;13.712;2023-11-21T01:45:42;97293.38;;;8.36;100.00
59831;BME280;45711;50.108;13.712;2023-11-21T01:48:08;97290.97;;;8.35;100.00
59831;BME280;45711;50.108;13.712;2023-11-21T01:50:34;97296.03;;;8.41;100.00
59831;BME280;45711;50.108;13.712;2023-11-21T01:53:01;97297.91;;;8.41;100.00
59831;BME280;45711;50.108;13.712;2023-11-21T01:55:27;97294.47;;;8.40;100.00
59831;BME280;45711;50.108;13.712;2023-11-21T01:57:56;97287.81;;;8.32;100.00
59831;BME280;45711;50.108;13.712;2023-11-21T02:00:22;97295.91;;;8.17;100.00
59831;BME280;45711;50.108;13.712;2023-11-21T02:02:49;97294.25;;;8.26;100.00
59831;BME280;45711;50.108;13.712;2023-11-21T02:05:15;97295.28;;;8.30;99.99
59831;BME280;45711;50.108;13.712;2023-11-21T02:07:43;97286.81;;;8.23;99.30
59831;BME280;45711;50.108;13.712;2023-11-21T02:10:11;97284.25;;;8.08;99.56
59831;BME280;45711;50.108;13.712;2023-11-21T02:12:40;97287.16;;;8.12;99.72
59831;BME280;45711;50.108;13.712;2023-11-21T02:15:08;97287.41;;;8.15;100.00
59831;BME280;45711;50.108;13.712;2023-11-21T02:17:40;97286.03;;;8.18;100.00
59831;BME280;45711;50.108;13.712;2023-11-21T02:20:07;97290.34;;;8.14;99.89
59831;BME280;45711;50.108;13.712;2023-11-21T02:22:35;97292.94;;;8.24;100.00
59831;BME280;45711;50.108;13.712;2023-11-21T02:25:06;97281.34;;;8.04;100.00
59831;BME280;45711;50.108;13.712;2023-11-21T02:27:34;97279.91;;;8.17;100.00
59831;BME280;45711;50.108;13.712;2023-11-21T02:30:00;97284.13;;;8.28;100.00
59831;BME280;45711;50.108;13.712;2023-11-21T02:32:31;97276.63;;;8.30;100.00
59831;BME280;45711;50.108;13.712;2023-11-21T02:34:57;97281.69;;;8.32;100.00
59831;BME280;45711;50.108;13.712;2023-11-21T02:37:26;97282.97;;;8.35;100.00
59831;BME280;45711;50.108;13.712;2023-11-21T02:39:54;97281.44;;;8.28;100.00
59831;BME280;45711;50.108;13.712;2023-11-21T02:42:22;97278.63;;;8.10;99.88
59831;BME280;45711;50.108;13.712;2023-11-21T02:44:51;97276.25;;;8.08;100.00
59831;BME280;45711;50.108;13.712;2023-11-21T02:47:19;97274.66;;;8.07;100.00
59831;BME280;45711;50.108;13.712;2023-11-21T02:49:45;97291.56;;;8.31;100.00
59831;BME280;45711;50.108;13.712;2023-11-21T02:52:10;97282.28;;;8.24;100.00
59831;BME280;45711;50.108;13.712;2023-11-21T02:54:39;97283.63;;;8.21;100.00
59831;BME280;45711;50.108;13.712;2023-11-21T02:57:08;97278.88;;;8.13;99.41
59831;BME280;45711;50.108;13.712;2023-11-21T02:59:35;97273.28;;;8.15;100.00
59831;BME280;45711;50.108;13.712;2023-11-21T03:02:04;97281.00;;;8.16;100.00
59831;BME280;45711;50.108;13.712;2023-11-21T03:04:33;97279.03;;;8.27;100.00
59831;BME280;45711;50.108;13.712;2023-11-21T03:07:00;97279.03;;;8.27;100.00
59831;BME280;45711;50.108;13.712;2023-11-21T03:09:26;97289.16;;;8.30;100.00
59831;BME280;45711;50.108;13.712;2023-11-21T03:11:54;97288.13;;;8.26;100.00
59831;BME280;45711;50.108;13.712;2023-11-21T03:14:20;97287.53;;;8.34;100.00
59831;BME280;45711;50.108;13.712;2023-11-21T03:16:49;97292.56;;;8.36;100.00
59831;BME280;45711;50.108;13.712;2023-11-21T03:19:17;97283.63;;;8.21;100.00
59831;BME280;45711;50.108;13.712;2023-11-21T03:21:45;97286.34;;;8.16;100.00
59831;BME280;45711;50.108;13.712;2023-11-21T03:24:14;97293.53;;;8.16;100.00
59831;BME280;45711;50.108;13.712;2023-11-21T03:26:44;97292.66;;;8.25;100.00
59831;BME280;45711;50.108;13.712;2023-11-21T03:29:10;97285.69;;;8.29;100.00
59831;BME280;45711;50.108;13.712;2023-11-21T03:31:35;97287.88;;;8.22;100.00
59831;BME280;45711;50.108;13.712;2023-11-21T03:34:02;97294.22;;;8.31;100.00
59831;BME280;45711;50.108;13.712;2023-11-21T03:36:29;97298.41;;;8.43;100.00
59831;BME280;45711;50.108;13.712;2023-11-21T03:38:54;97295.31;;;8.25;100.00
59831;BME280;45711;50.108;13.712;2023-11-21T03:41:21;97299.56;;;8.26;100.00
59831;BME280;45711;50.108;13.712;2023-11-21T03:43:46;97299.56;;;8.26;100.00
59831;BME280;45711;50.108;13.712;2023-11-21T03:46:12;97293.75;;;8.24;100.00
59831;BME280;45711;50.108;13.712;2023-11-21T03:48:37;97296.50;;;8.09;99.27
59831;BME280;45711;50.108;13.712;2023-11-21T03:51:05;97300.44;;;8.17;100.00
59831;BME280;45711;50.108;13.712;2023-11-21T03:53:31;97310.56;;;8.20;100.00
59831;BME280;45711;50.108;13.712;2023-11-21T03:55:57;97302.59;;;8.15;100.00
59831;BME280;45711;50.108;13.712;2023-11-21T03:58:23;97313.28;;;8.10;99.89
59831;BME280;45711;50.108;13.712;2023-11-21T04:00:48;97310.94;;;8.03;99.39
59831;BME280;45711;50.108;13.712;2023-11-21T04:03:14;97311.22;;;8.01;99.22
59831;BME280;45711;50.108;13.712;2023-11-21T04:05:40;97309.06;;;8.03;100.00
59831;BME280;45711;50.108;13.712;2023-11-21T04:08:08;97313.28;;;8.10;100.00
59831;BME280;45711;50.108;13.712;2023-11-21T04:10:33;97322.63;;;8.07;99.50
59831;BME280;45711;50.108;13.712;2023-11-21T04:12:59;97318.41;;;8.01;99.62
59831;BME280;45711;50.108;13.712;2023-11-21T04:15:25;97306.44;;;7.98;99.14
59831;BME280;45711;50.108;13.712;2023-11-21T04:17:51;97313.09;;;7.96;99.33
59831;BME280;45711;50.108;13.712;2023-11-21T04:20:17;97311.31;;;7.86;98.88
59831;BME280;45711;50.108;13.712;2023-11-21T04:22:44;97313.94;;;7.91;99.09
59831;BME280;45711;50.108;13.712;2023-11-21T04:25:11;97306.25;;;7.85;98.14
59831;BME280;45711;50.108;13.712;2023-11-21T04:27:38;97310.25;;;7.82;98.55
59831;BME280;45711;50.108;13.712;2023-11-21T04:30:05;97302.56;;;7.80;99.50
59831;BME280;45711;50.108;13.712;2023-11-21T04:32:31;97312.38;;;7.85;99.21
59831;BME280;45711;50.108;13.712;2023-11-21T04:34:57;97317.78;;;7.75;99.63
59831;BME280;45711;50.108;13.712;2023-11-21T04:37:23;97318.09;;;7.63;100.00
59831;BME280;45711;50.108;13.712;2023-11-21T04:39:49;97315.97;;;7.60;100.00
59831;BME280;45711;50.108;13.712;2023-11-21T04:42:16;97313.00;;;7.62;100.00
59831;BME280;45711;50.108;13.712;2023-11-21T04:44:42;97318.81;;;7.74;100.00
59831;BME280;45711;50.108;13.712;2023-11-21T04:47:09;97322.03;;;7.76;100.00
59831;BME280;45711;50.108;13.712;2023-11-21T04:49:35;97322.66;;;7.58;99.62
59831;BME280;45711;50.108;13.712;2023-11-21T04:52:00;97332.81;;;7.35;100.00
59831;BME280;45711;50.108;13.712;2023-11-21T04:54:27;97327.69;;;7.59;100.00
59831;BME280;45711;50.108;13.712;2023-11-21T04:56:52;97332.97;;;7.64;100.00
59831;BME280;45711;50.108;13.712;2023-11-21T04:59:19;97330.97;;;7.41;100.00
59831;BME280;45711;50.108;13.712;2023-11-21T05:01:47;97329.56;;;7.48;99.96
59831;BME280;45711;50.108;13.712;2023-11-21T05:04:13;97334.91;;;7.48;100.00
59831;BME280;45711;50.108;13.712;2023-11-21T05:06:40;97330.47;;;7.28;99.95
59831;BME280;45711;50.108;13.712;2023-11-21T05:09:05;97334.19;;;7.22;100.00
59831;BME280;45711;50.108;13.712;2023-11-21T05:11:34;97339.00;;;7.20;100.00
59831;BME280;45711;50.108;13.712;2023-11-21T05:14:03;97333.94;;;7.19;100.00
59831;BME280;45711;50.108;13.712;2023-11-21T05:16:30;97345.91;;;7.21;100.00
59831;BME280;45711;50.108;13.712;2023-11-21T05:18:56;97340.31;;;7.18;100.00
59831;BME280;45711;50.108;13.712;2023-11-21T05:21:26;97347.81;;;7.11;100.00
59831;BME280;45711;50.108;13.712;2023-11-21T05:23:51;97346.44;;;7.23;100.00
59831;BME280;45711;50.108;13.712;2023-11-21T05:26:17;97341.88;;;7.34;100.00
59831;BME280;45711;50.108;13.712;2023-11-21T05:28:43;97343.75;;;7.34;100.00
59831;BME280;45711;50.108;13.712;2023-11-21T05:31:08;97338.94;;;7.36;100.00
59831;BME280;45711;50.108;13.712;2023-11-21T05:33:35;97344.25;;;7.46;100.00
59831;BME280;45711;50.108;13.712;2023-11-21T05:36:01;97342.66;;;7.45;100.00
59831;BME280;45711;50.108;13.712;2023-11-21T05:38:26;97346.38;;;7.44;100.00
59831;BME280;45711;50.108;13.712;2023-11-21T05:40:52;97351.41;;;7.50;100.00
59831;BME280;45711;50.108;13.712;2023-11-21T05:43:18;97350.88;;;7.48;100.00
59831;BME280;45711;50.108;13.712;2023-11-21T05:45:47;97346.22;;;7.10;100.00
59831;BME280;45711;50.108;13.712;2023-11-21T05:48:13;97354.47;;;6.98;100.00
59831;BME280;45711;50.108;13.712;2023-11-21T05:50:40;97344.59;;;7.09;100.00
59831;BME280;45711;50.108;13.712;2023-11-21T05:53:06;97353.66;;;7.02;100.00
59831;BME280;45711;50.108;13.712;2023-11-21T05:55:32;97356.88;;;7.10;100.00
59831;BME280;45711;50.108;13.712;2023-11-21T05:57:58;97348.25;;;7.38;100.00
59831;BME280;45711;50.108;13.712;2023-11-21T06:00:24;97349.34;;;7.37;100.00
59831;BME280;45711;50.108;13.712;2023-11-21T06:02:51;97355.72;;;7.41;100.00
59831;BME280;45711;50.108;13.712;2023-11-21T06:05:22;97355.16;;;7.39;100.00
59831;BME280;45711;50.108;13.712;2023-11-21T06:07:50;97355.97;;;7.40;100.00
59831;BME280;45711;50.108;13.712;2023-11-21T06:10:15;97366.66;;;7.24;100.00
59831;BME280;45711;50.108;13.712;2023-11-21T06:12:43;97370.69;;;6.96;100.00
59831;BME280;45711;50.108;13.712;2023-11-21T06:15:10;97371.50;;;7.02;100.00
59831;BME280;45711;50.108;13.712;2023-11-21T06:17:39;97379.75;;;7.11;100.00
59831;BME280;45711;50.108;13.712;2023-11-21T06:20:05;97390.06;;;7.22;100.00
59831;BME280;45711;50.108;13.712;2023-11-21T06:22:34;97392.22;;;7.05;100.00
59831;BME280;45711;50.108;13.712;2023-11-21T06:25:02;97399.41;;;7.20;100.00
59831;BME280;45711;50.108;13.712;2023-11-21T06:27:28;97400.72;;;7.22;100.00
59831;BME280;45711;50.108;13.712;2023-11-21T06:29:55;97393.25;;;7.35;100.00
59831;BME280;45711;50.108;13.712;2023-11-21T06:32:22;97400.97;;;7.31;100.00
59831;BME280;45711;50.108;13.712;2023-11-21T06:34:48;97401.53;;;7.18;100.00
59831;BME280;45711;50.108;13.712;2023-11-21T06:37:14;97395.16;;;7.03;100.00
59831;BME280;45711;50.108;13.712;2023-11-21T06:39:40;97398.38;;;6.95;100.00
59831;BME280;45711;50.108;13.712;2023-11-21T06:42:09;97401.53;;;7.08;100.00
59831;BME280;45711;50.108;13.712;2023-11-21T06:44:36;97403.16;;;7.19;100.00
59831;BME280;45711;50.108;13.712;2023-11-21T06:47:02;97411.13;;;7.03;100.00
59831;BME280;45711;50.108;13.712;2023-11-21T06:49:28;97409.81;;;7.06;100.00
59831;BME280;45711;50.108;13.712;2023-11-21T06:51:54;97408.72;;;6.92;100.00
59831;BME280;45711;50.108;13.712;2023-11-21T06:54:21;97411.94;;;6.84;100.00
59831;BME280;45711;50.108;13.712;2023-11-21T06:56:47;97409.25;;;6.78;100.00
59831;BME280;45711;50.108;13.712;2023-11-21T06:59:14;97413.53;;;6.79;100.00
59831;BME280;45711;50.108;13.712;2023-11-21T07:01:39;97417.25;;;6.89;100.00
59831;BME280;45711;50.108;13.712;2023-11-21T07:04:07;97416.72;;;6.87;100.00
59831;BME280;45711;50.108;13.712;2023-11-21T07:06:35;97421.53;;;6.79;100.00
59831;BME280;45711;50.108;13.712;2023-11-21T07:09:03;97422.84;;;6.97;100.00
59831;BME280;45711;50.108;13.712;2023-11-21T07:11:29;97424.41;;;7.09;100.00
59831;BME280;45711;50.108;13.712;2023-11-21T07:13:54;97419.94;;;6.89;100.00
59831;BME280;45711;50.108;13.712;2023-11-21T07:16:24;97417.78;;;6.91;100.00
59831;BME280;45711;50.108;13.712;2023-11-21T07:18:50;97431.06;;;6.96;100.00
59831;BME280;45711;50.108;13.712;2023-11-21T07:21:20;97425.50;;;6.97;100.00
59831;BME280;45711;50.108;13.712;2023-11-21T07:23:46;97432.69;;;7.02;100.00
59831;BME280;45711;50.108;13.712;2023-11-21T07:26:13;97436.94;;;7.03;100.00
59831;BME280;45711;50.108;13.712;2023-11-21T07:28:39;97427.38;;;7.02;100.00
59831;BME280;45711;50.108;13.712;2023-11-21T07:31:05;97435.06;;;7.03;100.00
59831;BME280;45711;50.108;13.712;2023-11-21T07:33:32;97438.00;;;7.07;100.00
59831;BME280;45711;50.108;13.712;2023-11-21T07:35:57;97441.44;;;7.18;100.00
59831;BME280;45711;50.108;13.712;2023-11-21T07:38:25;97437.94;;;7.43;100.00
59831;BME280;45711;50.108;13.712;2023-11-21T07:40:50;97433.97;;;7.40;100.00
59831;BME280;45711;50.108;13.712;2023-11-21T07:43:16;97451.53;;;7.31;100.00
59831;BME280;45711;50.108;13.712;2023-11-21T07:45:42;97450.47;;;7.42;100.00
59831;BME280;45711;50.108;13.712;2023-11-21T07:48:07;97449.38;;;7.59;100.00
59831;BME280;45711;50.108;13.712;2023-11-21T07:50:34;97440.06;;;7.51;100.00
59831;BME280;45711;50.108;13.712;2023-11-21T07:53:00;97448.59;;;7.48;100.00
59831;BME280;45711;50.108;13.712;2023-11-21T07:55:26;97448.03;;;7.61;100.00
59831;BME280;45711;50.108;13.712;2023-11-21T07:57:52;97450.69;;;7.66;100.00
59831;BME280;45711;50.108;13.712;2023-11-21T08:00:32;97452.81;;;7.64;100.00
59831;BME280;45711;50.108;13.712;2023-11-21T08:03:00;97457.13;;;7.50;100.00
59831;BME280;45711;50.108;13.712;2023-11-21T08:05:26;97465.88;;;7.55;100.00
59831;BME280;45711;50.108;13.712;2023-11-21T08:07:53;97467.16;;;7.84;100.00
59831;BME280;45711;50.108;13.712;2023-11-21T08:10:18;97464.56;;;7.63;100.00
59831;BME280;45711;50.108;13.712;2023-11-21T08:12:46;97464.03;;;7.66;100.00
59831;BME280;45711;50.108;13.712;2023-11-21T08:15:13;97466.69;;;7.66;100.00
59831;BME280;45711;50.108;13.712;2023-11-21T08:17:39;97467.75;;;7.55;100.00
59831;BME280;45711;50.108;13.712;2023-11-21T08:20:06;97472.03;;;7.51;100.00
59831;BME280;45711;50.108;13.712;2023-11-21T08:22:33;97473.63;;;7.47;100.00
59831;BME280;45711;50.108;13.712;2023-11-21T08:25:01;97475.19;;;7.63;100.00
59831;BME280;45711;50.108;13.712;2023-11-21T08:27:29;97470.88;;;7.82;100.00
59831;BME280;45711;50.108;13.712;2023-11-21T08:29:54;97467.97;;;7.84;100.00
59831;BME280;45711;50.108;13.712;2023-11-21T08:32:21;97477.06;;;7.63;100.00
59831;BME280;45711;50.108;13.712;2023-11-21T08:34:47;97477.28;;;7.76;100.00
59831;BME280;45711;50.108;13.712;2023-11-21T08:37:16;97468.53;;;7.66;100.00
59831;BME280;45711;50.108;13.712;2023-11-21T08:39:41;97471.19;;;7.76;100.00
59831;BME280;45711;50.108;13.712;2023-11-21T08:42:08;97468.81;;;7.64;100.00
59831;BME280;45711;50.108;13.712;2023-11-21T08:44:34;97470.38;;;7.70;100.00
59831;BME280;45711;50.108;13.712;2023-11-21T08:47:00;97473.56;;;7.77;100.00
59831;BME280;45711;50.108;13.712;2023-11-21T08:49:26;97480.50;;;7.73;100.00
59831;BME280;45711;50.108;13.712;2023-11-21T08:51:53;97480.22;;;7.70;100.00
59831;BME280;45711;50.108;13.712;2023-11-21T08:54:20;97480.50;;;7.84;100.00
59831;BME280;45711;50.108;13.712;2023-11-21T08:56:46;97477.25;;;7.87;99.95
59831;BME280;45711;50.108;13.712;2023-11-21T08:59:13;97482.84;;;7.90;100.00
59831;BME280;45711;50.108;13.712;2023-11-21T09:01:42;97487.09;;;7.91;100.00
59831;BME280;45711;50.108;13.712;2023-11-21T09:04:07;97485.47;;;8.00;100.00
59831;BME280;45711;50.108;13.712;2023-11-21T09:06:35;97483.38;;;7.97;100.00
59831;BME280;45711;50.108;13.712;2023-11-21T09:09:01;97483.06;;;8.04;100.00
59831;BME280;45711;50.108;13.712;2023-11-21T09:11:27;97477.47;;;8.11;100.00
59831;BME280;45711;50.108;13.712;2023-11-21T09:13:58;97483.03;;;8.14;100.00
59831;BME280;45711;50.108;13.712;2023-11-21T09:16:25;97488.41;;;8.04;99.40
59831;BME280;45711;50.108;13.712;2023-11-21T09:18:53;97495.88;;;7.92;98.89
59831;BME280;45711;50.108;13.712;2023-11-21T09:21:18;97499.81;;;8.10;99.67
59831;BME280;45711;50.108;13.712;2023-11-21T09:23:44;97498.22;;;8.14;100.00
59831;BME280;45711;50.108;13.712;2023-11-21T09:26:10;97503.28;;;8.20;100.00
59831;BME280;45711;50.108;13.712;2023-11-21T09:28:35;97514.22;;;8.19;99.90
59831;BME280;45711;50.108;13.712;2023-11-21T09:31:03;97509.13;;;8.17;99.73
59831;BME280;45711;50.108;13.712;2023-11-21T09:33:35;97507.00;;;8.24;99.51
59831;BME280;45711;50.108;13.712;2023-11-21T09:36:01;97515.78;;;8.25;99.43
59831;BME280;45711;50.108;13.712;2023-11-21T09:38:29;97508.06;;;8.23;99.64
59831;BME280;45711;50.108;13.712;2023-11-21T09:40:54;97513.09;;;8.30;98.95
59831;BME280;45711;50.108;13.712;2023-11-21T09:43:20;97516.03;;;8.28;99.26
59831;BME280;45711;50.108;13.712;2023-11-21T09:45:48;97513.88;;;8.30;98.22
59831;BME280;45711;50.108;13.712;2023-11-21T09:48:19;97517.09;;;8.32;99.24
59831;BME280;45711;50.108;13.712;2023-11-21T09:50:47;97513.88;;;8.41;99.24
59831;BME280;45711;50.108;13.712;2023-11-21T09:53:18;97515.72;;;8.45;98.29
59831;BME280;45711;50.108;13.712;2023-11-21T09:55:47;97512.78;;;8.47;97.96
59831;BME280;45711;50.108;13.712;2023-11-21T09:58:13;97515.69;;;8.50;97.61
59831;BME280;45711;50.108;13.712;2023-11-21T10:00:40;97505.56;;;8.47;96.96
59831;BME280;45711;50.108;13.712;2023-11-21T10:03:07;97507.44;;;8.47;97.15
59831;BME280;45711;50.108;13.712;2023-11-21T10:05:32;97500.53;;;8.46;97.54
59831;BME280;45711;50.108;13.712;2023-11-21T10:08:02;97499.97;;;8.44;97.70
59831;BME280;45711;50.108;13.712;2023-11-21T10:10:32;97500.53;;;8.46;96.92
59831;BME280;45711;50.108;13.712;2023-11-21T10:13:01;97507.44;;;8.47;96.58
59831;BME280;45711;50.108;13.712;2023-11-21T10:15:29;97495.19;;;8.46;97.66
59831;BME280;45711;50.108;13.712;2023-11-21T10:17:56;97508.50;;;8.51;95.90
59831;BME280;45711;50.108;13.712;2023-11-21T10:20:33;97503.41;;;8.54;96.19
59831;BME280;45711;50.108;13.712;2023-11-21T10:22:59;97498.59;;;8.56;96.26
59831;BME280;45711;50.108;13.712;2023-11-21T10:25:29;97503.66;;;8.58;95.85
59831;BME280;45711;50.108;13.712;2023-11-21T10:27:57;97514.34;;;8.58;94.20
59831;BME280;45711;50.108;13.712;2023-11-21T10:30:32;97502.88;;;8.52;92.97
59831;BME280;45711;50.108;13.712;2023-11-21T10:32:59;97507.69;;;8.50;95.36
59831;BME280;45711;50.108;13.712;2023-11-21T10:35:38;97502.38;;;8.50;95.37
59831;BME280;45711;50.108;13.712;2023-11-21T10:38:04;97502.66;;;8.49;95.02
59831;BME280;45711;50.108;13.712;2023-11-21T10:40:31;97506.38;;;8.48;94.25
59831;BME280;45711;50.108;13.712;2023-11-21T10:43:06;97499.19;;;8.43;93.13
59831;BME280;45711;50.108;13.712;2023-11-21T10:45:31;97507.44;;;8.47;95.12
59831;BME280;45711;50.108;13.712;2023-11-21T10:47:57;97503.19;;;8.46;94.75
59831;BME280;45711;50.108;13.712;2023-11-21T10:50:23;97507.69;;;8.50;94.13
59831;BME280;45711;50.108;13.712;2023-11-21T10:52:52;97503.19;;;8.46;93.98
59831;BME280;45711;50.108;13.712;2023-11-21T10:55:18;97494.09;;;8.52;93.07
59831;BME280;45711;50.108;13.712;2023-11-21T10:57:48;97499.41;;;8.52;93.35
59831;BME280;45711;50.108;13.712;2023-11-21T11:00:17;97492.75;;;8.54;92.81
59831;BME280;45711;50.108;13.712;2023-11-21T11:02:49;97498.88;;;8.55;93.23
59831;BME280;45711;50.108;13.712;2023-11-21T11:05:17;97498.63;;;8.51;92.34
59831;BME280;45711;50.108;13.712;2023-11-21T11:07:46;97489.03;;;8.50;92.15
59831;BME280;45711;50.108;13.712;2023-11-21T11:10:13;97500.22;;;8.52;93.36
59831;BME280;45711;50.108;13.712;2023-11-21T11:12:39;97499.41;;;8.52;92.75
59831;BME280;45711;50.108;13.712;2023-11-21T11:15:08;97494.34;;;8.55;93.42
59831;BME280;45711;50.108;13.712;2023-11-21T11:17:35;97485.25;;;8.56;91.81
59831;BME280;45711;50.108;13.712;2023-11-21T11:20:04;97491.16;;;8.53;91.24
59831;BME280;45711;50.108;13.712;2023-11-21T11:22:37;97485.28;;;8.51;92.38
59831;BME280;45711;50.108;13.712;2023-11-21T11:25:21;97484.22;;;8.52;93.02
59831;BME280;45711;50.108;13.712;2023-11-21T11:27:52;97476.50;;;8.51;92.74
59831;BME280;45711;50.108;13.712;2023-11-21T11:30:30;97485.03;;;8.48;92.31
59831;BME280;45711;50.108;13.712;2023-11-21T11:33:08;97484.00;;;8.49;91.00
59831;BME280;45711;50.108;13.712;2023-11-21T11:35:47;97487.16;;;8.51;93.63
59831;BME280;45711;50.108;13.712;2023-11-21T11:38:17;97493.81;;;8.53;94.27
59831;BME280;45711;50.108;13.712;2023-11-21T11:40:45;97491.69;;;8.50;93.47
59831;BME280;45711;50.108;13.712;2023-11-21T11:43:11;97497.53;;;8.52;93.77
59831;BME280;45711;50.108;13.712;2023-11-21T11:45:38;97489.31;;;8.49;92.41
59831;BME280;45711;50.108;13.712;2023-11-21T11:48:08;97497.31;;;8.49;93.85
59831;BME280;45711;50.108;13.712;2023-11-21T11:50:42;97497.03;;;8.50;95.56
59831;BME280;45711;50.108;13.712;2023-11-21T11:53:26;97497.31;;;8.49;95.01
59831;BME280;45711;50.108;13.712;2023-11-21T11:56:27;97501.56;;;8.50;95.50
59831;BME280;45711;50.108;13.712;2023-11-21T11:58:55;97499.16;;;8.48;95.25
59831;BME280;45711;50.108;13.712;2023-11-21T12:01:24;97496.25;;;8.50;95.09
59831;BME280;45711;50.108;13.712;2023-11-21T12:04:23;97502.38;;;8.50;96.36
59831;BME280;45711;50.108;13.712;2023-11-21T12:06:51;97506.91;;;8.50;95.87
59831;BME280;45711;50.108;13.712;2023-11-21T12:09:18;97496.25;;;8.50;95.46
59831;BME280;45711;50.108;13.712;2023-11-21T12:11:45;97497.03;;;8.50;95.31
59831;BME280;45711;50.108;13.712;2023-11-21T12:14:15;97497.03;;;8.50;95.33
59831;BME280;45711;50.108;13.712;2023-11-21T12:16:45;97502.09;;;8.52;94.36
59831;BME280;45711;50.108;13.712;2023-11-21T12:19:11;97507.16;;;8.48;94.73
59831;BME280;45711;50.108;13.712;2023-11-21T12:21:37;97513.31;;;8.49;95.76
59831;BME280;45711;50.108;13.712;2023-11-21T12:24:03;97505.56;;;8.47;95.53
59831;BME280;45711;50.108;13.712;2023-11-21T12:26:29;97511.41;;;8.54;95.49
59831;BME280;45711;50.108;13.712;2023-11-21T12:28:55;97514.91;;;8.50;94.94
59831;BME280;45711;50.108;13.712;2023-11-21T12:31:23;97518.38;;;8.50;95.40
59831;BME280;45711;50.108;13.712;2023-11-21T12:33:53;97516.00;;;8.39;96.46
59831;BME280;45711;50.108;13.712;2023-11-21T12:36:21;97522.13;;;8.34;94.66
59831;BME280;45711;50.108;13.712;2023-11-21T12:38:47;97527.47;;;8.39;95.87
59831;BME280;45711;50.108;13.712;2023-11-21T12:41:15;97523.22;;;8.38;94.19
59831;BME280;45711;50.108;13.712;2023-11-21T12:43:42;97531.47;;;8.42;95.83
59831;BME280;45711;50.108;13.712;2023-11-21T12:46:11;97528.84;;;8.37;96.29
59831;BME280;45711;50.108;13.712;2023-11-21T12:48:37;97532.28;;;8.37;96.33
59831;BME280;45711;50.108;13.712;2023-11-21T12:51:06;97532.28;;;8.37;96.31
59831;BME280;45711;50.108;13.712;2023-11-21T12:53:32;97534.69;;;8.39;97.18
59831;BME280;45711;50.108;13.712;2023-11-21T12:56:02;97541.34;;;8.41;97.38